Time;durP1;ratioP1;P1;durP2;ratioP2;P2;SDS_P1;SDS_P2;PMS_P1;PMS_P2;Temp;Humidity;BMP_temperature;BMP_pressure;BME280_temperature;BME280_humidity;BME280_pressure;Samples;Min_cycle;Max_cycle;Signal;HPM_P1;HPM_P2
2024/04/16 00:00:41;;;;;;;5.20;1.70;;;;;;;6.87;100.00;100230.75;5531747;25;19993;-77
2024/04/16 00:03:07;;;;;;;11.05;2.22;;;;;;;6.67;100.00;100233.28;5530809;25;19993;-80
2024/04/16 00:05:32;;;;;;;6.68;1.60;;;;;;;6.61;100.00;100256.72;5564565;25;20008;-79
2024/04/16 00:07:58;;;;;;;7.50;1.60;;;;;;;6.56;100.00;100230.69;5563809;25;19997;-79
2024/04/16 00:10:24;;;;;;;10.70;1.75;;;;;;;6.49;100.00;100219.78;5563993;25;20008;-79
2024/04/16 00:12:49;;;;;;;10.38;1.52;;;;;;;6.42;100.00;100234.47;5564601;25;19997;-79
2024/04/16 00:15:15;;;;;;;12.40;1.70;;;;;;;6.29;100.00;100223.25;5563174;25;19997;-78
2024/04/16 00:17:40;;;;;;;7.18;1.55;;;;;;;6.11;100.00;100221.13;5563959;25;20096;-79
2024/04/16 00:20:06;;;;;;;9.40;1.80;;;;;;;6.02;100.00;100228.97;5564791;25;20012;-79
2024/04/16 00:22:32;;;;;;;5.88;1.40;;;;;;;5.97;100.00;100214.34;5531069;25;20457;-76
2024/04/16 00:24:58;;;;;;;7.20;1.35;;;;;;;5.96;100.00;100193.31;5563655;25;19996;-78
2024/04/16 00:27:23;;;;;;;5.40;1.60;;;;;;;6.05;100.00;100219.00;5530452;25;20004;-77
2024/04/16 00:29:49;;;;;;;8.85;1.58;;;;;;;6.12;100.00;100206.97;5563739;25;19989;-79
2024/04/16 00:32:14;;;;;;;7.53;1.45;;;;;;;6.14;100.00;100201.56;5563829;25;20384;-81
2024/04/16 00:34:39;;;;;;;9.80;1.50;;;;;;;6.13;100.00;100198.06;5530902;25;20311;-79
2024/04/16 00:37:05;;;;;;;11.75;2.47;;;;;;;6.10;100.00;100197.50;5563772;25;20001;-82
2024/04/16 00:39:30;;;;;;;7.95;2.20;;;;;;;6.04;100.00;100179.50;5563827;25;19992;-80
2024/04/16 00:41:55;;;;;;;9.63;1.90;;;;;;;6.00;100.00;100181.53;5564323;25;20008;-79
2024/04/16 00:44:23;;;;;;;7.45;1.23;;;;;;;5.99;100.00;100170.16;5563486;25;20009;-77
2024/04/16 00:46:49;;;;;;;15.68;3.17;;;;;;;6.06;100.00;100167.88;5531067;25;20420;-79
2024/04/16 00:49:15;;;;;;;8.75;1.65;;;;;;;6.12;100.00;100171.78;5564332;25;19997;-79
2024/04/16 00:51:40;;;;;;;15.57;2.15;;;;;;;6.14;100.00;100167.22;5563866;25;20004;-78
2024/04/16 00:54:06;;;;;;;8.05;1.67;;;;;;;6.11;100.00;100165.66;5563661;25;20019;-77
2024/04/16 00:56:39;;;;;;;5.50;1.50;;;;;;;6.13;100.00;100153.16;5564269;25;20004;-79
2024/04/16 00:59:04;;;;;;;22.45;2.15;;;;;;;6.16;100.00;100155.53;5564550;25;20001;-79
2024/04/16 01:01:30;;;;;;;9.18;1.75;;;;;;;6.21;100.00;100176.31;5531068;25;20011;-77
2024/04/16 01:03:56;;;;;;;15.00;1.77;;;;;;;6.08;100.00;100181.78;5564155;25;20448;-78
2024/04/16 01:06:25;;;;;;;6.45;1.80;;;;;;;5.79;100.00;100173.53;5564190;25;19988;-78
2024/04/16 01:08:51;;;;;;;9.15;1.30;;;;;;;5.28;100.00;100191.66;5564243;25;20313;-79
2024/04/16 01:11:23;;;;;;;6.07;1.08;;;;;;;4.71;100.00;100192.56;5563456;25;20003;-79
2024/04/16 01:13:48;;;;;;;7.28;1.13;;;;;;;4.35;100.00;100208.38;5563067;25;20004;-84
2024/04/16 01:16:14;;;;;;;8.98;1.35;;;;;;;3.98;100.00;100220.78;5562445;25;20129;-79
2024/04/16 01:18:39;;;;;;;5.82;1.23;;;;;;;3.80;100.00;100215.91;5529864;25;20007;-80
2024/04/16 01:21:04;;;;;;;10.15;1.08;;;;;;;3.70;100.00;100207.84;5563107;25;19989;-80
2024/04/16 01:23:30;;;;;;;8.57;1.77;;;;;;;3.62;100.00;100201.44;5562624;25;20018;-80
2024/04/16 01:25:55;;;;;;;7.85;1.13;;;;;;;3.57;100.00;100191.25;5563274;25;19996;-82
2024/04/16 01:28:20;;;;;;;9.93;1.65;;;;;;;3.55;100.00;100210.72;5502690;25;20008;-82
2024/04/16 01:30:45;;;;;;;10.32;1.60;;;;;;;3.52;100.00;100196.84;5533007;25;19992;-79
2024/04/16 01:33:11;;;;;;;6.00;0.82;;;;;;;3.51;100.00;100189.91;5566051;25;19997;-81
2024/04/16 01:35:36;;;;;;;13.70;1.23;;;;;;;3.55;100.00;100189.66;5566030;25;20009;-78
2024/04/16 01:38:01;;;;;;;8.90;1.52;;;;;;;3.58;100.00;100192.91;5566515;25;19993;-80
2024/04/16 01:40:27;;;;;;;4.68;1.15;;;;;;;3.68;100.00;100180.78;5566580;25;19996;-81
2024/04/16 01:42:53;;;;;;;6.63;0.90;;;;;;;3.66;100.00;100173.97;5566393;25;20003;-81
2024/04/16 01:45:18;;;;;;;4.50;1.00;;;;;;;3.64;100.00;100189.00;5567914;25;20440;-79
2024/04/16 01:47:43;;;;;;;3.10;1.08;;;;;;;3.59;100.00;100180.63;5567332;25;20421;-78
2024/04/16 01:50:09;;;;;;;4.35;0.77;;;;;;;3.52;100.00;100186.31;5566241;25;19996;-80
2024/04/16 01:52:34;;;;;;;5.53;0.90;;;;;;;3.53;100.00;100174.00;5566263;25;20444;-79
2024/04/16 01:55:00;;;;;;;3.45;1.00;;;;;;;3.47;100.00;100159.50;5533139;25;20488;-79
2024/04/16 01:57:25;;;;;;;8.13;1.05;;;;;;;3.42;100.00;100153.72;5565834;25;20318;-80
2024/04/16 01:59:50;;;;;;;6.65;1.15;;;;;;;3.37;100.00;100149.75;5566557;25;19993;-80
2024/04/16 02:02:15;;;;;;;4.80;1.00;;;;;;;3.33;100.00;100149.13;5565799;25;19997;-80
2024/04/16 02:04:41;;;;;;;10.73;1.17;;;;;;;3.31;100.00;100141.34;5566552;25;19992;-81
2024/04/16 02:07:06;;;;;;;8.52;1.20;;;;;;;3.30;100.00;100138.81;5533290;25;20317;-83
2024/04/16 02:09:35;;;;;;;8.23;1.58;;;;;;;3.37;100.00;100121.66;5565862;25;20425;-83
2024/04/16 02:12:00;;;;;;;12.48;1.30;;;;;;;3.40;100.00;100112.72;5566703;25;20011;-82
2024/04/16 02:14:26;;;;;;;11.90;1.92;;;;;;;3.62;100.00;100115.44;5502916;25;20008;-79
2024/04/16 02:16:52;;;;;;;9.85;2.25;;;;;;;3.77;100.00;100112.66;5565327;25;20368;-80
2024/04/16 02:19:17;;;;;;;19.83;3.75;;;;;;;3.94;100.00;100121.94;5565944;25;19996;-81
2024/04/16 02:21:42;;;;;;;15.20;2.13;;;;;;;4.08;100.00;100105.97;5565773;25;20004;-81
2024/04/16 02:24:08;;;;;;;7.25;1.83;;;;;;;4.22;100.00;100103.13;5566441;25;20007;-82
2024/04/16 02:26:33;;;;;;;11.43;2.35;;;;;;;4.37;100.00;100089.72;5566377;25;19997;-80
2024/04/16 02:28:58;;;;;;;12.60;2.17;;;;;;;4.51;100.00;100086.88;5566354;25;19989;-84
2024/04/16 02:31:24;;;;;;;17.38;2.28;;;;;;;4.68;100.00;100095.28;5566709;25;20001;-83
2024/04/16 02:33:49;;;;;;;11.05;2.45;;;;;;;4.80;100.00;100085.59;5533272;25;20003;-81
2024/04/16 02:36:14;;;;;;;14.82;1.90;;;;;;;4.72;100.00;100092.28;5566498;25;20005;-79
2024/04/16 02:38:40;;;;;;;9.43;2.22;;;;;;;4.87;100.00;100098.16;5566110;25;20008;-80
2024/04/16 02:41:05;;;;;;;12.60;2.45;;;;;;;4.94;100.00;100069.50;5566413;25;19993;-80
2024/04/16 02:43:30;;;;;;;10.95;1.95;;;;;;;4.95;100.00;100072.00;5533742;25;20011;-82
2024/04/16 02:45:56;;;;;;;11.15;1.88;;;;;;;4.96;100.00;100051.78;5532733;25;19993;-77
2024/04/16 02:48:21;;;;;;;8.68;1.80;;;;;;;4.97;100.00;100060.50;5533170;25;20001;-82
2024/04/16 02:50:48;;;;;;;10.88;2.38;;;;;;;4.95;100.00;100053.56;5566849;25;20008;-81
2024/04/16 02:53:13;;;;;;;15.15;2.35;;;;;;;5.01;100.00;100056.69;5566208;25;20405;-80
2024/04/16 02:55:39;;;;;;;11.52;2.08;;;;;;;5.11;100.00;100057.63;5532856;25;20004;-82
2024/04/16 02:58:04;;;;;;;11.07;1.77;;;;;;;5.21;100.00;100040.09;5566401;25;19997;-82
2024/04/16 03:00:30;;;;;;;9.82;2.08;;;;;;;5.30;100.00;100047.25;5533384;25;20004;-81
2024/04/16 03:02:56;;;;;;;10.32;2.08;;;;;;;5.39;100.00;100045.69;5566951;25;20008;-78
2024/04/16 03:05:21;;;;;;;14.55;2.30;;;;;;;5.40;100.00;100047.34;5566061;25;19992;-83
2024/04/16 03:07:49;;;;;;;11.80;2.13;;;;;;;5.46;100.00;100031.03;5565796;25;20000;-81
2024/04/16 03:10:15;;;;;;;9.82;2.65;;;;;;;5.47;100.00;100032.69;5565892;25;20504;-80
2024/04/16 03:12:43;;;;;;;8.55;1.75;;;;;;;5.42;100.00;100028.75;5532785;25;20024;-75
2024/04/16 03:15:08;;;;;;;8.52;1.60;;;;;;;5.17;100.00;100032.56;5532146;25;20004;-77
2024/04/16 03:17:34;;;;;;;6.57;1.40;;;;;;;4.93;100.00;100017.75;5565102;25;19993;-78
2024/04/16 03:19:59;;;;;;;3.33;0.90;;;;;;;4.78;100.00;100022.44;5564611;25;20401;-81
2024/04/16 03:22:24;;;;;;;7.18;1.50;;;;;;;4.64;100.00;100028.78;5531885;25;20001;-79
2024/04/16 03:24:50;;;;;;;7.65;1.60;;;;;;;4.54;100.00;100028.69;5565352;25;19992;-81
2024/04/16 03:27:16;;;;;;;13.68;1.67;;;;;;;4.46;100.00;100025.78;5565465;25;20003;-85
2024/04/16 03:29:41;;;;;;;11.02;1.77;;;;;;;4.45;100.00;100031.19;5565430;25;20278;-84
2024/04/16 03:32:09;;;;;;;4.13;1.40;;;;;;;4.45;100.00;100028.56;5532592;25;20064;-81
2024/04/16 03:34:34;;;;;;;6.03;1.27;;;;;;;4.45;100.00;100021.50;5565019;25;19992;-81
2024/04/16 03:37:00;;;;;;;7.13;2.28;;;;;;;4.43;100.00;100019.94;5564999;25;20305;-82
2024/04/16 03:39:26;;;;;;;9.93;1.10;;;;;;;4.44;100.00;100029.53;5531923;25;20333;-79
2024/04/16 03:41:51;;;;;;;9.77;1.33;;;;;;;4.41;100.00;100018.25;5564995;25;19993;-77
2024/04/16 03:44:16;;;;;;;8.68;2.10;;;;;;;4.34;100.00;100011.78;5564707;25;20012;-81
2024/04/16 03:46:42;;;;;;;9.52;1.48;;;;;;;4.35;100.00;100016.09;5564475;25;20069;-80
2024/04/16 03:49:07;;;;;;;8.55;1.63;;;;;;;4.34;100.00;100011.78;5563880;25;20029;-83
2024/04/16 03:51:32;;;;;;;10.23;1.77;;;;;;;4.32;100.00;99997.09;5564763;25;19999;-84
2024/04/16 03:53:58;;;;;;;8.27;1.15;;;;;;;4.28;100.00;100000.91;5531457;25;20063;-77
2024/04/16 03:56:23;;;;;;;7.40;1.25;;;;;;;4.27;100.00;100010.59;5564841;25;20015;-79
2024/04/16 03:59:15;;;;;;;11.38;1.80;;;;;;;4.31;100.00;99998.03;5564512;25;19996;-79
2024/04/16 04:01:39;;;;;;;5.57;1.33;;;;;;;4.31;100.00;99977.78;5537725;25;19993;-78
2024/04/16 04:04:05;;;;;;;8.98;1.50;;;;;;;4.35;100.00;99978.41;5565362;25;20298;-79
2024/04/16 04:06:30;;;;;;;15.48;1.65;;;;;;;4.34;100.00;100008.31;5563944;25;20447;-81
2024/04/16 04:08:55;;;;;;;8.95;1.75;;;;;;;4.44;100.00;99961.03;5565136;25;20007;-77
2024/04/16 04:11:21;;;;;;;21.75;2.42;;;;;;;4.42;100.00;99963.78;5564869;25;19992;-77
2024/04/16 04:13:46;;;;;;;12.35;1.80;;;;;;;4.48;100.00;99965.09;5564181;25;19993;-80
2024/04/16 04:16:13;;;;;;;16.98;1.55;;;;;;;4.51;100.00;99960.44;5531068;25;20064;-81
2024/04/16 04:18:39;;;;;;;15.70;2.22;;;;;;;4.54;100.00;99968.09;5565029;25;19989;-82
2024/04/16 04:21:04;;;;;;;13.63;2.28;;;;;;;4.59;100.00;99967.72;5563981;25;20002;-78
2024/04/16 04:23:30;;;;;;;23.30;2.92;;;;;;;4.60;100.00;99966.78;5563600;25;20065;-78
2024/04/16 04:25:55;;;;;;;26.90;3.00;;;;;;;4.69;100.00;99959.94;5564133;25;20064;-79
2024/04/16 04:28:21;;;;;;;17.23;2.75;;;;;;;4.73;100.00;99959.56;5530544;25;20405;-80
2024/04/16 04:30:49;;;;;;;16.25;2.00;;;;;;;4.96;100.00;99967.41;5562973;25;20015;-80
2024/04/16 04:33:15;;;;;;;28.98;2.63;;;;;;;5.11;100.00;99960.06;5563788;25;19996;-83
2024/04/16 04:35:40;;;;;;;25.00;2.95;;;;;;;5.26;100.00;99964.06;5563618;25;19993;-84
2024/04/16 04:38:06;;;;;;;21.50;3.08;;;;;;;5.35;100.00;99965.09;5563741;25;19989;-88
2024/04/16 04:40:33;;;;;;;30.45;3.58;;;;;;;5.41;100.00;99959.31;5563480;25;20084;-82
2024/04/16 04:42:59;;;;;;;24.55;3.38;;;;;;;5.54;100.00;99971.47;5563214;25;19989;-80
2024/04/16 04:45:25;;;;;;;20.05;2.70;;;;;;;5.60;100.00;99976.28;5563420;25;20015;-82
2024/04/16 04:47:50;;;;;;;22.83;3.88;;;;;;;5.65;100.00;99989.91;5563924;25;20312;-85
2024/04/16 04:50:16;;;;;;;22.38;3.03;;;;;;;5.68;100.00;99979.09;5563351;25;20004;-84
2024/04/16 04:52:41;;;;;;;20.40;3.15;;;;;;;5.70;100.00;99969.25;5563253;25;20003;-80
2024/04/16 04:55:06;;;;;;;24.85;3.45;;;;;;;5.76;100.00;100007.47;5563398;25;20385;-83
2024/04/16 04:57:32;;;;;;;21.13;3.30;;;;;;;5.79;100.00;99999.31;5563332;25;20069;-83
2024/04/16 04:59:57;;;;;;;22.17;3.08;;;;;;;5.83;100.00;100008.66;5563349;25;19985;-83
2024/04/16 05:02:23;;;;;;;16.52;2.90;;;;;;;5.85;100.00;100012.00;5533471;25;19991;-84
2024/04/16 05:04:49;;;;;;;28.77;3.83;;;;;;;5.90;100.00;100011.63;5503832;25;20421;-80
2024/04/16 05:07:14;;;;;;;19.88;3.40;;;;;;;5.92;100.00;100023.72;5568055;25;20316;-80
2024/04/16 05:09:39;;;;;;;21.17;4.10;;;;;;;5.95;100.00;100020.00;5534272;25;20436;-79
2024/04/16 05:12:05;;;;;;;29.27;3.80;;;;;;;5.98;100.00;100019.75;5567746;25;19988;-81
2024/04/16 05:14:30;;;;;;;21.58;3.42;;;;;;;6.03;100.00;100029.94;5567056;25;20431;-83
2024/04/16 05:16:55;;;;;;;23.38;3.47;;;;;;;6.08;100.00;100025.94;5534252;25;19988;-81
2024/04/16 05:19:22;;;;;;;25.67;3.80;;;;;;;6.10;100.00;100033.72;5534612;25;20003;-84
2024/04/16 05:21:47;;;;;;;14.88;3.38;;;;;;;6.12;100.00;100027.38;5567504;25;19993;-80
2024/04/16 05:24:13;;;;;;;15.35;2.63;;;;;;;6.15;100.00;100044.72;5567892;25;19993;-80
2024/04/16 05:26:38;;;;;;;23.58;2.83;;;;;;;6.14;100.00;100048.38;5534204;25;20309;-79
2024/04/16 05:29:04;;;;;;;13.70;2.28;;;;;;;6.18;100.00;100047.16;5567262;25;19992;-82
2024/04/16 05:31:29;;;;;;;12.95;2.35;;;;;;;6.26;100.00;100063.16;5566856;25;20090;-78
2024/04/16 05:33:55;;;;;;;12.82;2.15;;;;;;;6.35;100.00;100058.91;5503600;25;19992;-80
2024/04/16 05:36:20;;;;;;;9.90;2.42;;;;;;;6.43;100.00;100043.22;5566599;25;19997;-79
2024/04/16 05:38:45;;;;;;;22.98;3.10;;;;;;;6.47;100.00;100052.56;5567034;25;20298;-79
2024/04/16 05:41:11;;;;;;;14.95;2.08;;;;;;;6.59;100.00;100060.41;5566443;25;20000;-82
2024/04/16 05:43:36;;;;;;;22.45;3.17;;;;;;;6.66;100.00;100078.25;5503639;25;20012;-81
2024/04/16 05:46:01;;;;;;;18.05;3.00;;;;;;;6.66;100.00;100078.25;5566908;25;19988;-82
2024/04/16 05:48:27;;;;;;;23.48;2.70;;;;;;;6.55;100.00;100096.84;5565957;25;19993;-81
2024/04/16 05:50:52;;;;;;;23.33;3.30;;;;;;;6.41;100.00;100084.81;5532975;25;19995;-83
2024/04/16 05:53:17;;;;;;;25.50;2.47;;;;;;;6.34;100.00;100092.44;5566379;25;19993;-81
2024/04/16 05:55:44;;;;;;;18.33;2.65;;;;;;;6.35;100.00;100094.09;5566031;25;20433;-82
2024/04/16 05:58:10;;;;;;;18.83;3.22;;;;;;;6.37;100.00;100099.25;5565497;25;20029;-83
2024/04/16 06:00:39;;;;;;;16.50;2.60;;;;;;;6.45;100.00;100074.81;5533256;25;20024;-81
2024/04/16 06:03:04;;;;;;;15.98;3.58;;;;;;;6.53;100.00;100088.22;5565253;25;20061;-83
2024/04/16 06:05:29;;;;;;;23.63;3.63;;;;;;;6.58;100.00;100099.22;5532610;25;20012;-82
2024/04/16 06:07:56;;;;;;;25.13;3.88;;;;;;;6.67;100.00;100100.22;5565755;25;19993;-86
2024/04/16 06:10:22;;;;;;;24.65;3.70;;;;;;;6.74;100.00;100093.44;5565231;25;20116;-80
2024/04/16 06:12:47;;;;;;;22.20;3.20;;;;;;;6.78;100.00;100094.88;5564852;25;20481;-86
2024/04/16 06:15:13;;;;;;;23.95;4.20;;;;;;;6.82;100.00;100117.44;5565233;25;20008;-80
2024/04/16 06:17:38;;;;;;;22.27;3.63;;;;;;;6.80;100.00;100110.59;5565480;25;20345;-81
2024/04/16 06:20:04;;;;;;;30.88;3.85;;;;;;;6.72;100.00;100119.19;5532174;25;20068;-81
2024/04/16 06:22:30;;;;;;;17.45;3.25;;;;;;;6.62;100.00;100139.47;5532187;25;20003;-82
2024/04/16 06:24:55;;;;;;;20.65;2.78;;;;;;;6.49;100.00;100152.88;5565214;25;20354;-82
2024/04/16 06:27:20;;;;;;;15.48;2.33;;;;;;;6.28;100.00;100145.75;5565131;25;20441;-83
2024/04/16 06:29:46;;;;;;;13.65;2.47;;;;;;;6.22;100.00;100142.81;5564984;25;20032;-85
2024/04/16 06:32:12;;;;;;;20.88;3.60;;;;;;;6.28;100.00;100142.28;5532574;25;19997;-82
2024/04/16 06:34:37;;;;;;;24.00;2.95;;;;;;;6.31;100.00;100140.22;5566390;25;20424;-80
2024/04/16 06:37:03;;;;;;;11.27;2.17;;;;;;;6.33;100.00;100145.41;5565027;25;20004;-79
2024/04/16 06:39:28;;;;;;;15.88;1.90;;;;;;;6.35;100.00;100157.50;5532300;25;20004;-82
2024/04/16 06:41:54;;;;;;;27.42;2.85;;;;;;;6.27;100.00;100162.59;5564634;25;19996;-83
2024/04/16 06:44:19;;;;;;;23.20;2.80;;;;;;;6.24;100.00;100159.38;5532502;25;20052;-83
2024/04/16 06:46:44;;;;;;;33.05;3.83;;;;;;;6.32;100.00;100162.22;5564728;25;19993;-83
2024/04/16 06:49:10;;;;;;;23.30;3.42;;;;;;;6.65;100.00;100169.09;5564604;25;20004;-81
2024/04/16 06:51:35;;;;;;;23.85;3.88;;;;;;;6.92;100.00;100172.19;5564597;25;20000;-86
2024/04/16 06:54:00;;;;;;;14.10;2.40;;;;;;;7.15;100.00;100186.91;5565079;25;20425;-81
2024/04/16 06:56:26;;;;;;;14.32;2.10;;;;;;;7.18;100.00;100193.72;5565063;25;19992;-85
2024/04/16 06:58:51;;;;;;;10.00;2.30;;;;;;;7.37;100.00;100193.78;5564636;25;20004;-85
2024/04/16 07:01:16;;;;;;;25.67;3.33;;;;;;;7.61;100.00;100192.63;5531750;25;20310;-85
2024/04/16 07:03:42;;;;;;;16.27;3.10;;;;;;;7.82;100.00;100183.75;5564914;25;19996;-85
2024/04/16 07:06:08;;;;;;;17.00;2.42;;;;;;;8.03;100.00;100210.97;5564640;25;20064;-84
2024/04/16 07:08:33;;;;;;;10.57;2.00;;;;;;;8.03;100.00;100197.72;5564430;25;19996;-85
2024/04/16 07:10:59;;;;;;;14.68;2.22;;;;;;;8.13;100.00;100205.66;5564189;25;20331;-85
2024/04/16 07:13:24;;;;;;;17.65;2.42;;;;;;;8.15;100.00;100205.53;5565114;25;20025;-84
2024/04/16 07:15:50;;;;;;;17.75;2.60;;;;;;;8.19;100.00;100212.22;5564610;25;19992;-84
2024/04/16 07:18:16;;;;;;;15.32;2.58;;;;;;;8.15;100.00;100208.16;5564094;25;19989;-86
2024/04/16 07:20:48;;;;;;;11.00;2.55;;;;;;;8.10;100.00;100220.00;5531830;25;20281;-82
2024/04/16 07:23:14;;;;;;;23.40;4.15;;;;;;;8.00;100.00;100221.00;5563244;25;20009;-83
2024/04/16 07:25:43;;;;;;;22.95;3.30;;;;;;;7.88;100.00;100220.28;5563633;25;20321;-81
2024/04/16 07:28:09;;;;;;;13.65;2.80;;;;;;;7.97;100.00;100223.91;5563855;25;20068;-85
2024/04/16 07:30:34;;;;;;;12.70;2.42;;;;;;;8.05;100.00;100235.50;5563760;25;19993;-83
2024/04/16 07:33:00;;;;;;;24.58;3.08;;;;;;;8.13;100.00;100224.22;5563607;25;20000;-86
2024/04/16 07:35:25;;;;;;;15.23;2.80;;;;;;;8.39;100.00;100240.41;5564437;25;19992;-84
2024/04/16 07:37:51;;;;;;;20.77;3.15;;;;;;;8.60;100.00;100236.81;5563481;25;20461;-86
2024/04/16 07:40:17;;;;;;;23.17;2.83;;;;;;;8.50;100.00;100243.94;5563955;25;19996;-87
2024/04/16 07:42:42;;;;;;;15.52;2.03;;;;;;;8.33;100.00;100242.78;5563858;25;19989;-84
2024/04/16 07:45:07;;;;;;;17.33;2.67;;;;;;;8.17;100.00;100236.22;5563101;25;20522;-85
2024/04/16 07:47:33;;;;;;;16.33;2.85;;;;;;;8.15;100.00;100247.91;5530179;25;20004;-85
2024/04/16 07:49:58;;;;;;;19.73;2.78;;;;;;;8.14;100.00;100247.09;5530316;25;19996;-85
2024/04/16 07:52:23;;;;;;;18.35;3.00;;;;;;;8.09;100.00;100255.47;5564202;25;20045;-83
2024/04/16 07:54:49;;;;;;;19.23;3.25;;;;;;;8.07;100.00;100260.03;5563994;25;19993;-88
2024/04/16 07:57:17;;;;;;;20.48;2.97;;;;;;;8.12;100.00;100256.97;5563419;25;20008;-89
2024/04/16 07:59:42;;;;;;;16.05;2.78;;;;;;;8.21;100.00;100256.19;5563889;25;20434;-80
2024/04/16 08:02:08;;;;;;;16.33;2.65;;;;;;;8.32;100.00;100273.75;5563985;25;19996;-88
2024/04/16 08:04:33;;;;;;;23.45;3.67;;;;;;;8.48;100.00;100267.94;5563647;25;20009;-81
2024/04/16 08:06:58;;;;;;;19.98;3.13;;;;;;;8.52;100.00;100277.28;5564414;25;20379;-87
2024/04/16 08:09:24;;;;;;;11.73;2.22;;;;;;;8.23;100.00;100280.72;5563975;25;20064;-84
2024/04/16 08:11:49;;;;;;;17.00;2.90;;;;;;;8.09;100.00;100289.06;5530524;25;19991;-88
2024/04/16 08:14:17;;;;;;;15.50;2.55;;;;;;;8.30;100.00;100288.97;5563629;25;20420;-85
2024/04/16 08:16:43;;;;;;;17.35;2.45;;;;;;;8.72;100.00;100280.78;5531368;25;20003;-83
2024/04/16 08:19:08;;;;;;;18.95;3.10;;;;;;;8.97;100.00;100282.00;5530490;25;20428;-84
2024/04/16 08:21:33;;;;;;;19.52;3.78;;;;;;;8.91;100.00;100303.81;5530747;25;20004;-87
2024/04/16 08:23:59;;;;;;;18.88;3.63;;;;;;;8.69;100.00;100302.28;5563403;25;20000;-80
2024/04/16 08:26:24;;;;;;;17.38;3.30;;;;;;;8.55;100.00;100314.13;5563425;25;20429;-82
2024/04/16 08:28:49;;;;;;;17.63;2.53;;;;;;;8.32;100.00;100318.00;5499297;25;20020;-83
2024/04/16 08:31:15;;;;;;;10.77;2.55;;;;;;;8.21;100.00;100330.38;5563593;25;20000;-85
2024/04/16 08:33:40;;;;;;;16.13;3.72;;;;;;;8.11;100.00;100332.16;5563852;25;20004;-86
2024/04/16 08:36:06;;;;;;;29.65;3.17;;;;;;;8.12;100.00;100323.22;5532767;25;20448;-82
2024/04/16 08:38:31;;;;;;;17.48;2.80;;;;;;;8.18;100.00;100335.09;5567715;25;19993;-87
2024/04/16 08:41:01;;;;;;;14.43;2.92;;;;;;;8.24;100.00;100338.06;5567854;25;19985;-86
2024/04/16 08:43:29;;;;;;;13.75;3.08;;;;;;;8.09;100.00;100342.91;5567147;25;19989;-79
2024/04/16 08:45:55;;;;;;;17.25;2.85;;;;;;;7.92;100.00;100343.53;5567976;25;20075;-87
2024/04/16 08:48:21;;;;;;;15.73;2.97;;;;;;;7.91;100.00;100352.44;5567420;25;19988;-86
2024/04/16 08:50:50;;;;;;;24.60;3.45;;;;;;;8.18;100.00;100364.25;5534648;25;19985;-87
2024/04/16 08:53:16;;;;;;;13.40;2.75;;;;;;;8.30;100.00;100365.84;5567376;25;19988;-84
2024/04/16 08:55:44;;;;;;;33.35;3.70;;;;;;;8.51;100.00;100351.66;5568189;25;19992;-90
2024/04/16 08:58:10;;;;;;;22.60;3.08;;;;;;;8.59;100.00;100365.91;5566869;25;20457;-87
2024/04/16 09:00:35;;;;;;;15.93;2.35;;;;;;;8.44;100.00;100364.63;5567963;25;19996;-87
2024/04/16 09:03:00;;;;;;;17.58;3.22;;;;;;;8.28;100.00;100379.22;5534155;25;19993;-86
2024/04/16 09:05:27;;;;;;;14.82;2.80;;;;;;;7.92;100.00;100388.56;5566216;25;20429;-82
2024/04/16 09:07:52;;;;;;;28.02;3.47;;;;;;;7.73;100.00;100411.34;5566315;25;20029;-83
2024/04/16 09:10:24;;;;;;;23.08;3.20;;;;;;;7.59;100.00;100406.38;5566268;25;20061;-81
2024/04/16 09:12:50;;;;;;;16.77;2.67;;;;;;;7.45;100.00;100406.69;5566588;25;19993;-80
2024/04/16 09:15:17;;;;;;;18.77;2.90;;;;;;;7.32;100.00;100409.56;5565928;25;20000;-82
2024/04/16 09:17:54;;;;;;;14.55;2.65;;;;;;;7.20;100.00;100424.66;5566591;25;20003;-82
2024/04/16 09:20:20;;;;;;;21.65;3.35;;;;;;;7.23;100.00;100421.75;5533338;25;19996;-78
2024/04/16 09:22:47;;;;;;;16.48;2.88;;;;;;;7.32;100.00;100415.69;5566733;25;20015;-81
2024/04/16 09:25:13;;;;;;;21.13;3.42;;;;;;;7.24;100.00;100436.66;5565879;25;20046;-81
2024/04/16 09:27:38;;;;;;;20.98;3.65;;;;;;;7.22;100.00;100433.28;5565843;25;20008;-81
2024/04/16 09:30:09;;;;;;;25.67;4.22;;;;;;;7.38;100.00;100440.81;5566334;25;20001;-81
2024/04/16 09:32:35;;;;;;;;;;;;;;;7.71;100.00;100454.81;5566890;25;20004;-81
2024/04/16 09:35:00;;;;;;;27.95;3.58;;;;;;;7.97;100.00;100449.09;5566346;25;19922;-82
2024/04/16 09:37:26;;;;;;;17.30;3.05;;;;;;;8.24;100.00;100441.44;5565697;25;20071;-83
2024/04/16 09:39:52;;;;;;;16.65;3.05;;;;;;;8.43;100.00;100453.91;5567622;25;20413;-82
2024/04/16 09:42:21;;;;;;;17.95;3.33;;;;;;;8.50;100.00;100445.44;5535198;25;20024;-81
2024/04/16 09:44:48;;;;;;;15.13;3.05;;;;;;;8.49;100.00;100457.84;5571696;25;19989;-81
2024/04/16 09:47:16;;;;;;;13.68;2.80;;;;;;;8.44;100.00;100457.44;5566275;25;20000;-80
2024/04/16 09:49:43;;;;;;;13.07;3.22;;;;;;;8.40;100.00;100459.47;5567122;25;19996;-77
2024/04/16 09:52:12;;;;;;;21.63;3.95;;;;;;;8.24;100.00;100467.94;5534446;25;19988;-81
2024/04/16 09:54:38;;;;;;;26.65;4.30;;;;;;;8.02;100.00;100471.59;5566409;25;20016;-84
2024/04/16 09:57:05;;;;;;;18.48;4.05;;;;;;;7.88;100.00;100466.63;5566191;25;20003;-84
2024/04/16 09:59:32;;;;;;;19.50;2.97;;;;;;;7.80;100.00;100472.56;5533186;25;20025;-86
2024/04/16 10:01:58;;;;;;;20.52;4.13;;;;;;;7.80;100.00;100484.97;5566341;25;20026;-85
2024/04/16 10:04:25;;;;;;;18.00;3.45;;;;;;;7.76;100.00;100492.34;5502588;25;19996;-85
2024/04/16 10:06:51;;;;;;;19.98;3.40;;;;;;;7.66;100.00;100494.06;5566323;25;19993;-88
2024/04/16 10:09:17;;;;;;;18.80;3.05;;;;;;;7.57;100.00;100506.28;5533039;25;19985;-87
2024/04/16 10:11:47;;;;;;;25.70;3.33;;;;;;;7.51;100.00;100509.44;5565974;25;20003;-80
2024/04/16 10:14:13;;;;;;;22.25;3.88;;;;;;;7.41;100.00;100502.25;5565446;25;19989;-85
2024/04/16 10:16:40;;;;;;;26.88;3.78;;;;;;;7.35;100.00;100500.13;5564960;25;20054;-82
2024/04/16 10:19:06;;;;;;;34.33;4.65;;;;;;;7.33;100.00;100511.78;5565641;25;20033;-82
2024/04/16 10:21:38;;;;;;;24.73;4.68;;;;;;;7.38;100.00;100513.09;5565355;25;20000;-84
2024/04/16 10:24:10;;;;;;;25.63;3.97;;;;;;;7.55;100.00;100508.22;5565927;25;20004;-82
2024/04/16 10:26:39;;;;;;;24.90;4.53;;;;;;;7.87;100.00;100515.28;5565785;25;19996;-78
2024/04/16 10:29:14;;;;;;;31.67;4.18;;;;;;;8.08;100.00;100533.81;5565203;25;20040;-84
2024/04/16 10:31:40;;;;;;;18.02;3.83;;;;;;;8.05;100.00;100528.78;5533659;25;20018;-87
2024/04/16 10:34:05;;;;;;;25.25;4.07;;;;;;;7.99;100.00;100540.75;5533413;25;19988;-90
2024/04/16 10:36:32;;;;;;;21.42;3.65;;;;;;;8.04;100.00;100538.53;5565708;25;20004;-80
2024/04/16 10:38:58;;;;;;;19.55;3.08;;;;;;;8.11;100.00;100538.84;5565434;25;20001;-82
2024/04/16 10:41:28;;;;;;;19.95;3.45;;;;;;;8.15;100.00;100534.13;5565149;25;20004;-85
2024/04/16 10:43:55;;;;;;;20.90;2.78;;;;;;;8.23;100.00;100536.97;5565591;25;19992;-86
2024/04/16 10:46:22;;;;;;;20.65;3.78;;;;;;;8.31;100.00;100542.44;5566031;25;20008;-88
2024/04/16 10:48:48;;;;;;;14.43;3.05;;;;;;;8.31;100.00;100553.03;5532476;25;19993;-86
2024/04/16 10:51:14;;;;;;;20.80;3.28;;;;;;;8.19;100.00;100543.50;5565058;25;20012;-83
2024/04/16 10:53:40;;;;;;;18.08;3.30;;;;;;;8.06;100.00;100551.63;5565627;25;19992;-85
2024/04/16 10:56:08;;;;;;;22.20;3.22;;;;;;;7.94;100.00;100558.81;5565383;25;20069;-83
2024/04/16 10:58:34;;;;;;;15.85;3.47;;;;;;;7.92;100.00;100558.94;5565051;25;19997;-83
2024/04/16 11:01:00;;;;;;;31.85;3.33;;;;;;;7.83;100.00;100551.78;5564857;25;20004;-83
2024/04/16 11:03:26;;;;;;;12.07;2.85;;;;;;;7.87;100.00;100568.28;5532029;25;20093;-86
2024/04/16 11:05:51;;;;;;;17.98;2.83;;;;;;;8.02;100.00;100582.03;5532404;25;19993;-85
2024/04/16 11:08:17;;;;;;;17.15;2.92;;;;;;;8.19;100.00;100570.84;5566345;25;19997;-85
2024/04/16 11:10:49;;;;;;;22.80;3.58;;;;;;;8.43;100.00;100581.19;5564716;25;20441;-88
2024/04/16 11:13:18;;;;;;;15.77;2.80;;;;;;;8.62;100.00;100582.28;5532272;25;19997;-90